Time;durP1;ratioP1;P1;durP2;ratioP2;P2;SDS_P1;SDS_P2;PMS_P1;PMS_P2;Temp;Humidity;BMP_temperature;BMP_pressure;BME280_temperature;BME280_humidity;BME280_pressure;Samples;Min_cycle;Max_cycle;Signal;HPM_P1;HPM_P2
2024/03/01 00:00:21;;;;;;;20.23;3.67;;;10.00;99.90;;;;;;5007831;28;20026;-75
2024/03/01 00:02:48;;;;;;;15.13;4.07;;;10.10;99.90;;;;;;5011194;28;20875;-76
2024/03/01 00:05:13;;;;;;;16.08;4.00;;;10.20;99.90;;;;;;5011241;28;20033;-76
2024/03/01 00:07:39;;;;;;;9.35;3.03;;;10.20;99.90;;;;;;5012148;28;20391;-76
2024/03/01 00:10:07;;;;;;;11.68;3.22;;;10.20;99.90;;;;;;5012369;28;20111;-76
2024/03/01 00:12:33;;;;;;;7.80;2.90;;;10.20;99.90;;;;;;5008174;28;20038;-75
2024/03/01 00:14:59;;;;;;;9.30;3.25;;;10.10;99.90;;;;;;5008737;28;20045;-76
2024/03/01 00:17:24;;;;;;;18.48;3.85;;;10.10;99.90;;;;;;5013747;28;20632;-76
2024/03/01 00:19:50;;;;;;;12.63;4.72;;;10.00;99.90;;;;;;5012006;28;20048;-76
2024/03/01 00:22:16;;;;;;;11.85;2.83;;;9.90;99.90;;;;;;5012443;28;20064;-76
2024/03/01 00:24:42;;;;;;;12.15;3.38;;;9.80;99.90;;;;;;5013804;28;20454;-76
2024/03/01 00:27:08;;;;;;;12.73;3.30;;;9.80;99.90;;;;;;5012493;28;20033;-76
2024/03/01 00:29:34;;;;;;;10.98;3.17;;;9.80;99.90;;;;;;5011783;28;20029;-76
2024/03/01 00:32:00;;;;;;;16.60;2.92;;;9.80;99.90;;;;;;5013525;28;20037;-75
2024/03/01 00:34:25;;;;;;;22.13;4.70;;;9.80;99.90;;;;;;5011830;28;20361;-76
2024/03/01 00:36:51;;;;;;;14.55;2.90;;;9.80;99.90;;;;;;5014537;28;20049;-75
2024/03/01 00:39:17;;;;;;;9.80;2.85;;;9.80;99.90;;;;;;5015705;28;20490;-75
2024/03/01 00:41:42;;;;;;;9.93;2.63;;;9.80;99.90;;;;;;5012448;28;20765;-77
2024/03/01 00:44:09;;;;;;;17.42;3.90;;;9.80;99.90;;;;;;5012842;28;20025;-76
2024/03/01 00:46:36;;;;;;;9.70;3.25;;;9.80;99.90;;;;;;5014242;28;20038;-76
2024/03/01 00:49:02;;;;;;;10.70;3.70;;;9.80;99.90;;;;;;5013897;28;20030;-76
2024/03/01 00:51:28;;;;;;;12.90;3.15;;;9.80;99.90;;;;;;5014432;28;20041;-75
2024/03/01 00:53:53;;;;;;;14.93;2.58;;;9.90;99.90;;;;;;5014571;28;20522;-76
2024/03/01 00:56:19;;;;;;;16.13;3.53;;;10.00;99.90;;;;;;5012076;28;20052;-76
2024/03/01 00:58:45;;;;;;;9.40;2.65;;;9.90;99.90;;;;;;5012200;28;20112;-76
2024/03/01 01:01:12;;;;;;;9.45;3.03;;;9.90;99.90;;;;;;5014825;28;20071;-76
2024/03/01 01:03:38;;;;;;;10.98;2.38;;;9.90;99.90;;;;;;5011036;28;20041;-76
2024/03/01 01:06:03;;;;;;;7.88;2.78;;;9.80;99.90;;;;;;5012910;28;20040;-75
2024/03/01 01:08:29;;;;;;;9.30;3.50;;;9.80;99.90;;;;;;5013514;28;20454;-76
2024/03/01 01:10:55;;;;;;;6.90;1.85;;;9.80;99.90;;;;;;5012336;28;20108;-76
2024/03/01 01:13:20;;;;;;;11.82;3.30;;;9.80;99.90;;;;;;5011956;28;20037;-75
2024/03/01 01:15:46;;;;;;;16.20;2.72;;;9.70;99.90;;;;;;5012802;28;20076;-76
2024/03/01 01:18:14;;;;;;;9.20;2.58;;;9.60;99.90;;;;;;5013334;28;20034;-76
2024/03/01 01:20:39;;;;;;;10.18;2.65;;;9.60;99.90;;;;;;5011905;28;20487;-76
2024/03/01 01:23:05;;;;;;;8.18;2.65;;;9.60;99.90;;;;;;5013688;28;20044;-76
2024/03/01 01:25:30;;;;;;;8.50;2.90;;;9.60;99.90;;;;;;5004395;28;20045;-76
2024/03/01 01:27:56;;;;;;;8.88;2.33;;;9.50;99.90;;;;;;5009077;28;20033;-76
2024/03/01 01:30:22;;;;;;;7.68;2.75;;;9.50;99.90;;;;;;5012682;28;20030;-76
2024/03/01 01:32:47;;;;;;;12.88;2.10;;;9.50;99.90;;;;;;5009617;28;20024;-76
2024/03/01 01:35:13;;;;;;;8.10;2.65;;;9.50;99.90;;;;;;5013224;28;20098;-76
2024/03/01 01:37:39;;;;;;;10.75;2.60;;;9.50;99.90;;;;;;5011764;28;20108;-74
2024/03/01 01:40:05;;;;;;;9.73;2.65;;;9.50;99.90;;;;;;5013861;28;20091;-76
2024/03/01 01:42:32;;;;;;;13.13;2.35;;;9.60;99.90;;;;;;5012766;28;20034;-76
2024/03/01 01:44:57;;;;;;;8.55;2.25;;;9.70;99.90;;;;;;5012240;28;20044;-76
2024/03/01 01:47:23;;;;;;;6.40;2.58;;;9.70;99.90;;;;;;5013297;28;20045;-76
2024/03/01 01:49:49;;;;;;;7.28;3.03;;;9.70;99.90;;;;;;5005418;28;20029;-76
2024/03/01 01:52:15;;;;;;;10.82;3.03;;;9.70;99.90;;;;;;5009890;28;20033;-76
2024/03/01 01:54:43;;;;;;;11.23;2.88;;;9.60;99.90;;;;;;5007893;28;20041;-75
2024/03/01 01:57:09;;;;;;;11.15;2.75;;;9.50;99.90;;;;;;5014539;28;20044;-74
2024/03/01 01:59:36;;;;;;;10.73;2.30;;;9.50;99.90;;;;;;5010897;28;20033;-76
2024/03/01 02:02:03;;;;;;;8.43;3.33;;;9.40;99.90;;;;;;5012446;28;20033;-76
2024/03/01 02:04:30;;;;;;;12.65;2.72;;;9.30;99.90;;;;;;5011871;28;20464;-76
2024/03/01 02:06:56;;;;;;;10.95;3.13;;;9.40;99.90;;;;;;5012415;28;20637;-76
2024/03/01 02:09:22;;;;;;;8.63;3.05;;;9.40;99.90;;;;;;5007220;28;20033;-76
2024/03/01 02:11:48;;;;;;;8.63;2.92;;;9.40;99.90;;;;;;5008960;28;20037;-76
2024/03/01 02:14:13;;;;;;;9.93;2.47;;;9.50;99.90;;;;;;5011245;28;20736;-76
2024/03/01 02:16:39;;;;;;;11.88;2.95;;;9.50;99.90;;;;;;5011478;28;20434;-76
2024/03/01 02:19:16;;;;;;;10.45;4.05;;;9.50;99.90;;;;;;5012910;28;20079;-76
2024/03/01 02:21:57;;;;;;;8.70;2.45;;;9.50;99.90;;;;;;5014018;28;20479;-76
2024/03/01 02:24:23;;;;;;;6.25;2.38;;;9.50;99.90;;;;;;5011026;28;20501;-76
2024/03/01 02:26:52;;;;;;;5.30;2.38;;;9.50;99.90;;;;;;5011912;28;20032;-77
2024/03/01 02:29:18;;;;;;;10.30;2.85;;;9.50;99.90;;;;;;5012120;28;20037;-76
2024/03/01 02:31:43;;;;;;;12.80;2.28;;;9.60;99.90;;;;;;5010776;28;20040;-76
2024/03/01 02:34:09;;;;;;;8.82;2.65;;;9.60;99.90;;;;;;5011988;28;20030;-76
2024/03/01 02:36:35;;;;;;;11.77;3.28;;;9.60;99.90;;;;;;5011566;28;20052;-76
2024/03/01 02:39:00;;;;;;;10.45;3.58;;;9.50;99.90;;;;;;5012712;28;20026;-76
2024/03/01 02:41:26;;;;;;;7.72;2.60;;;9.50;99.90;;;;;;5010610;28;20480;-76
2024/03/01 02:43:52;;;;;;;9.35;2.70;;;9.50;99.90;;;;;;5010738;28;20490;-76
2024/03/01 02:46:17;;;;;;;10.45;2.83;;;9.50;99.90;;;;;;5011481;28;20036;-77
2024/03/01 02:48:44;;;;;;;9.38;2.78;;;9.50;99.90;;;;;;5011968;28;20025;-77
2024/03/01 02:51:10;;;;;;;9.07;2.80;;;9.50;99.90;;;;;;5008103;28;20049;-76
2024/03/01 02:53:35;;;;;;;13.27;2.60;;;9.50;99.90;;;;;;5012300;28;20100;-76
2024/03/01 02:56:01;;;;;;;8.15;2.63;;;9.60;99.90;;;;;;5011665;28;20049;-76
2024/03/01 02:58:26;;;;;;;8.73;2.33;;;9.50;99.90;;;;;;5010053;28;20128;-76
2024/03/01 03:00:52;;;;;;;8.15;2.67;;;9.50;99.90;;;;;;5012256;28;20070;-74
2024/03/01 03:03:18;;;;;;;7.72;2.85;;;9.60;99.90;;;;;;5013394;28;20095;-74
2024/03/01 03:05:44;;;;;;;16.70;3.10;;;9.70;99.90;;;;;;5013770;28;20037;-74
2024/03/01 03:08:09;;;;;;;9.40;3.15;;;9.70;99.90;;;;;;5014063;28;20090;-75
2024/03/01 03:10:35;;;;;;;12.32;3.20;;;9.60;99.90;;;;;;5016496;28;20061;-74
2024/03/01 03:13:02;;;;;;;15.80;4.95;;;9.60;99.90;;;;;;5012315;28;20551;-74
2024/03/01 03:15:28;;;;;;;16.83;3.40;;;9.50;99.90;;;;;;5014746;28;20605;-76
2024/03/01 03:17:53;;;;;;;13.07;3.85;;;9.60;99.90;;;;;;5015646;28;20480;-77
2024/03/01 03:20:19;;;;;;;11.77;4.65;;;9.50;99.90;;;;;;5016634;28;20029;-76
2024/03/01 03:22:45;;;;;;;13.35;4.45;;;9.50;99.90;;;;;;5010653;28;20034;-76
2024/03/01 03:25:14;;;;;;;9.20;3.75;;;9.50;99.90;;;;;;5014159;28;20034;-76
2024/03/01 03:27:40;;;;;;;7.70;4.13;;;9.50;99.90;;;;;;5016350;28;20700;-76
2024/03/01 03:30:07;;;;;;;7.80;3.90;;;9.50;99.90;;;;;;5014248;28;20033;-77
2024/03/01 03:32:35;;;;;;;9.60;3.17;;;9.40;99.90;;;;;;5014994;28;20039;-76
2024/03/01 03:35:03;;;;;;;10.73;3.00;;;9.40;99.90;;;;;;5009817;28;20375;-76
2024/03/01 03:37:29;;;;;;;10.55;3.00;;;9.40;99.90;;;;;;5013596;28;20033;-76
2024/03/01 03:39:54;;;;;;;12.32;3.30;;;9.50;99.90;;;;;;5015198;28;20442;-76
2024/03/01 03:42:20;;;;;;;9.43;3.22;;;9.50;99.90;;;;;;5014528;28;20840;-76
2024/03/01 03:44:46;;;;;;;8.68;3.05;;;9.50;99.90;;;;;;5012399;28;20047;-76
2024/03/01 03:47:11;;;;;;;12.82;2.85;;;9.40;99.90;;;;;;5006458;28;20034;-76
2024/03/01 03:49:37;;;;;;;7.85;3.30;;;9.40;99.90;;;;;;5013750;28;20678;-76
2024/03/01 03:52:03;;;;;;;7.47;3.28;;;9.40;99.90;;;;;;5013940;28;20041;-76
2024/03/01 03:54:30;;;;;;;13.55;3.60;;;9.30;99.90;;;;;;5013183;28;20169;-76
2024/03/01 03:56:55;;;;;;;7.90;2.67;;;9.30;99.90;;;;;;5011815;28;20065;-76
2024/03/01 03:59:21;;;;;;;7.63;3.65;;;9.30;99.90;;;;;;5012863;28;21599;-76
2024/03/01 04:01:49;;;;;;;6.90;3.65;;;9.30;99.90;;;;;;5014353;28;20666;-76
2024/03/01 04:04:15;;;;;;;13.05;3.88;;;9.30;99.90;;;;;;5009297;28;20973;-76
2024/03/01 04:06:41;;;;;;;11.18;4.10;;;9.20;99.90;;;;;;5009723;28;20033;-76
2024/03/01 04:09:10;;;;;;;12.02;3.50;;;9.30;99.90;;;;;;5009909;28;21577;-75
2024/03/01 04:11:36;;;;;;;9.55;3.50;;;9.30;99.90;;;;;;5008892;28;20111;-76
2024/03/01 04:14:02;;;;;;;10.45;3.80;;;9.30;99.90;;;;;;5007177;28;20041;-76
2024/03/01 04:16:29;;;;;;;11.32;3.63;;;9.30;99.90;;;;;;5011895;28;20045;-76
2024/03/01 04:18:54;;;;;;;9.10;3.88;;;9.30;99.90;;;;;;5007066;28;20044;-76
2024/03/01 04:21:20;;;;;;;9.20;4.45;;;9.30;99.90;;;;;;5007277;28;20132;-76
2024/03/01 04:23:48;;;;;;;11.38;4.05;;;9.30;99.90;;;;;;5008372;28;20037;-76
2024/03/01 04:26:13;;;;;;;11.40;4.13;;;9.20;99.90;;;;;;5010383;28;20018;-76
2024/03/01 04:28:40;;;;;;;7.20;3.30;;;9.30;99.90;;;;;;5007853;28;20037;-76
2024/03/01 04:31:06;;;;;;;8.50;3.63;;;9.30;99.90;;;;;;5007506;28;20495;-76
2024/03/01 04:33:37;;;;;;;10.82;4.35;;;9.30;99.90;;;;;;5005379;28;20065;-76
2024/03/01 04:36:03;;;;;;;12.70;4.03;;;9.30;99.90;;;;;;5008432;28;20464;-76
2024/03/01 04:38:29;;;;;;;8.52;3.30;;;9.30;99.90;;;;;;5006794;28;20044;-76
2024/03/01 04:40:54;;;;;;;5.72;2.88;;;9.30;99.90;;;;;;5006860;28;20041;-76
2024/03/01 04:43:20;;;;;;;10.10;2.75;;;9.30;99.90;;;;;;5000483;28;20037;-76
2024/03/01 04:45:46;;;;;;;5.82;2.47;;;9.30;99.90;;;;;;5008738;28;20113;-76
2024/03/01 04:48:11;;;;;;;7.22;2.63;;;9.30;99.90;;;;;;5007685;28;20033;-76
2024/03/01 04:50:38;;;;;;;11.15;4.05;;;9.30;99.90;;;;;;5009536;28;20026;-76
2024/03/01 04:53:04;;;;;;;6.25;2.88;;;9.30;99.90;;;;;;5009491;28;20877;-76
2024/03/01 04:55:29;;;;;;;12.55;3.15;;;9.30;99.90;;;;;;5007359;28;20041;-76
2024/03/01 04:57:55;;;;;;;7.18;2.40;;;9.30;99.90;;;;;;5008697;28;20037;-76
2024/03/01 05:00:23;;;;;;;7.90;2.88;;;9.30;99.90;;;;;;5006415;28;20339;-76
2024/03/01 05:02:49;;;;;;;9.05;2.75;;;9.30;99.90;;;;;;5005861;28;20076;-76
2024/03/01 05:05:18;;;;;;;6.72;2.72;;;9.20;99.90;;;;;;5005479;28;20376;-76
2024/03/01 05:07:48;;;;;;;10.00;3.47;;;9.10;99.90;;;;;;5007964;28;20983;-76
2024/03/01 05:10:15;;;;;;;10.40;3.97;;;9.10;99.90;;;;;;5000500;28;20251;-76
2024/03/01 05:12:42;;;;;;;11.70;3.33;;;9.10;99.90;;;;;;5006548;28;20048;-76
2024/03/01 05:15:09;;;;;;;7.10;3.17;;;9.10;99.90;;;;;;4990553;28;21117;-76
2024/03/01 05:17:36;;;;;;;11.73;3.70;;;9.10;99.90;;;;;;4989699;28;20048;-76
2024/03/01 05:20:08;;;;;;;10.43;3.38;;;9.20;99.90;;;;;;5002866;28;20042;-75
2024/03/01 05:22:36;;;;;;;12.30;4.25;;;9.20;99.90;;;;;;5006695;28;20120;-76
2024/03/01 05:25:14;;;;;;;10.95;3.53;;;9.10;99.90;;;;;;5004308;28;20577;-76
2024/03/01 05:27:49;;;;;;;7.88;4.22;;;9.20;99.90;;;;;;5006622;28;20672;-76
2024/03/01 05:30:20;;;;;;;6.07;3.20;;;9.20;99.90;;;;;;5006870;28;20041;-75
2024/03/01 05:32:51;;;;;;;11.80;3.45;;;9.20;99.90;;;;;;5008061;28;20108;-76
2024/03/01 05:35:21;;;;;;;13.65;3.80;;;9.20;99.90;;;;;;5006522;28;20037;-76
2024/03/01 05:37:47;;;;;;;9.68;3.42;;;9.20;99.90;;;;;;5003248;28;20401;-76
2024/03/01 05:40:16;;;;;;;9.68;2.90;;;9.30;99.90;;;;;;5005082;28;20037;-76
2024/03/01 05:42:45;;;;;;;8.25;3.58;;;9.30;99.90;;;;;;5007753;28;20041;-76
2024/03/01 05:45:11;;;;;;;13.43;4.20;;;9.30;99.90;;;;;;5006343;28;20436;-76
2024/03/01 05:47:45;;;;;;;9.50;3.95;;;9.30;99.90;;;;;;5005168;28;20368;-76
2024/03/01 05:50:14;;;;;;;6.65;3.22;;;9.30;99.90;;;;;;5005653;28;20109;-76
2024/03/01 05:52:42;;;;;;;11.05;4.03;;;9.30;99.90;;;;;;5005058;28;20029;-76
2024/03/01 05:55:14;;;;;;;9.40;3.45;;;9.30;99.90;;;;;;5003811;28;20044;-76
2024/03/01 05:57:40;;;;;;;7.90;3.17;;;9.30;99.90;;;;;;5004528;28;20099;-76
2024/03/01 06:00:21;;;;;;;6.95;3.03;;;9.30;99.90;;;;;;5006306;28;20094;-76
2024/03/01 06:02:48;;;;;;;8.73;3.53;;;9.30;99.90;;;;;;5004975;28;20152;-76
2024/03/01 06:05:14;;;;;;;8.88;3.13;;;9.30;99.90;;;;;;5005409;28;20632;-76
2024/03/01 06:07:40;;;;;;;9.23;3.38;;;9.30;99.90;;;;;;5003074;28;20033;-76
2024/03/01 06:10:06;;;;;;;8.23;3.40;;;9.20;99.90;;;;;;5005693;28;20206;-76
2024/03/01 06:12:32;;;;;;;7.68;2.80;;;9.20;99.90;;;;;;5004929;28;21460;-76
2024/03/01 06:14:58;;;;;;;7.63;2.88;;;9.30;99.90;;;;;;5002595;28;20478;-76
2024/03/01 06:17:23;;;;;;;8.27;3.13;;;9.20;99.90;;;;;;5007549;28;20637;-75
2024/03/01 06:19:49;;;;;;;9.65;3.22;;;9.20;99.90;;;;;;5008785;28;21178;-76
2024/03/01 06:22:14;;;;;;;10.82;4.25;;;9.30;99.90;;;;;;5005088;28;20099;-77
2024/03/01 06:24:40;;;;;;;10.13;3.15;;;9.30;99.90;;;;;;5003694;28;20037;-75
2024/03/01 06:27:06;;;;;;;10.00;3.40;;;9.40;99.90;;;;;;5005038;28;20037;-75
2024/03/01 06:29:31;;;;;;;9.35;3.47;;;9.40;99.90;;;;;;5005805;28;20038;-76
2024/03/01 06:31:57;;;;;;;9.10;3.50;;;9.30;99.90;;;;;;5005380;28;20851;-75
2024/03/01 06:34:23;;;;;;;8.75;3.28;;;9.30;99.90;;;;;;5005807;28;21029;-76
2024/03/01 06:36:49;;;;;;;8.32;3.28;;;9.20;99.90;;;;;;5017171;28;20103;-76
2024/03/01 06:39:14;;;;;;;8.38;3.92;;;9.80;99.90;;;;;;5013343;28;20041;-76
2024/03/01 06:41:41;;;;;;;15.48;3.53;;;9.80;99.90;;;;;;5012675;28;20044;-76
2024/03/01 06:44:06;;;;;;;9.13;3.90;;;9.60;99.90;;;;;;5009545;28;20037;-75
2024/03/01 06:46:32;;;;;;;9.10;3.50;;;9.40;99.90;;;;;;5009393;28;20150;-76
2024/03/01 06:49:00;;;;;;;10.13;3.13;;;9.40;99.90;;;;;;5010422;28;20037;-75
2024/03/01 06:51:26;;;;;;;11.90;3.05;;;9.30;99.90;;;;;;5009277;28;20033;-75
2024/03/01 06:53:52;;;;;;;10.77;3.05;;;9.20;99.90;;;;;;5011838;28;20040;-74
2024/03/01 06:56:18;;;;;;;11.95;4.47;;;9.30;99.90;;;;;;5010070;28;20638;-75
2024/03/01 06:58:43;;;;;;;8.93;3.08;;;9.20;99.90;;;;;;5011232;28;20068;-76
2024/03/01 07:01:10;;;;;;;11.60;3.80;;;9.20;99.90;;;;;;5008956;28;20880;-75
2024/03/01 07:03:36;;;;;;;8.88;3.50;;;9.10;99.90;;;;;;5009869;28;20469;-75
2024/03/01 07:06:02;;;;;;;15.60;4.72;;;9.90;99.90;;;;;;5009264;28;20037;-74
2024/03/01 07:08:27;;;;;;;7.43;2.88;;;9.50;99.90;;;;;;5008483;28;20044;-74
2024/03/01 07:10:54;;;;;;;9.30;2.90;;;9.40;99.90;;;;;;5006910;28;20970;-76
2024/03/01 07:13:22;;;;;;;6.57;2.58;;;9.30;99.90;;;;;;5002738;28;20025;-76
2024/03/01 07:15:48;;;;;;;6.82;2.80;;;9.20;99.90;;;;;;5006755;28;20045;-76
2024/03/01 07:18:13;;;;;;;8.45;3.00;;;9.30;99.90;;;;;;5008716;28;20056;-76
2024/03/01 07:20:39;;;;;;;8.80;3.65;;;9.20;99.90;;;;;;5013571;28;20059;-75
2024/03/01 07:23:05;;;;;;;9.27;3.15;;;9.30;99.90;;;;;;5010277;28;20037;-76
2024/03/01 07:25:31;;;;;;;7.80;3.40;;;9.20;99.90;;;;;;5011938;28;20038;-76
2024/03/01 07:27:56;;;;;;;7.75;2.95;;;9.30;99.90;;;;;;5012431;28;20636;-75
2024/03/01 07:30:22;;;;;;;5.80;3.00;;;9.30;99.90;;;;;;5011419;28;20064;-75
2024/03/01 07:32:47;;;;;;;10.82;3.10;;;9.30;99.90;;;;;;5009414;28;20678;-76
2024/03/01 07:35:14;;;;;;;10.32;4.03;;;9.30;99.90;;;;;;5012617;28;20091;-75
2024/03/01 07:37:39;;;;;;;12.60;3.30;;;9.30;99.90;;;;;;5010260;28;20037;-75
2024/03/01 07:40:06;;;;;;;39.58;24.55;;;9.20;99.90;;;;;;5009748;28;20700;-76
2024/03/01 07:42:32;;;;;;;21.30;11.25;;;9.20;99.90;;;;;;5012414;28;20618;-76
2024/03/01 07:44:57;;;;;;;10.57;6.85;;;9.10;99.90;;;;;;5011202;28;20042;-76
2024/03/01 07:47:29;;;;;;;12.30;5.60;;;9.20;99.90;;;;;;5011461;28;20064;-75
2024/03/01 07:49:56;;;;;;;10.15;4.60;;;9.20;99.90;;;;;;5013109;28;20041;-76
2024/03/01 07:52:21;;;;;;;7.95;4.03;;;9.10;99.90;;;;;;5011149;28;20038;-76
2024/03/01 07:54:47;;;;;;;9.98;3.47;;;9.10;99.90;;;;;;5009397;28;20036;-76
2024/03/01 07:57:14;;;;;;;5.35;2.80;;;9.20;99.90;;;;;;5012577;28;20450;-76
2024/03/01 07:59:40;;;;;;;14.88;6.40;;;9.20;99.90;;;;;;5010578;28;20069;-76
2024/03/01 08:02:09;;;;;;;9.50;4.07;;;9.10;99.90;;;;;;5012283;28;20521;-76
2024/03/01 08:04:34;;;;;;;8.38;4.10;;;9.10;99.90;;;;;;5010285;28;20045;-76
2024/03/01 08:07:01;;;;;;;8.90;3.55;;;9.20;99.90;;;;;;5007514;28;20125;-76
2024/03/01 08:09:32;;;;;;;7.93;3.50;;;9.30;99.90;;;;;;5009072;28;20521;-76
2024/03/01 08:11:58;;;;;;;9.40;3.72;;;9.30;99.90;;;;;;5009541;28;20080;-76
2024/03/01 08:14:31;;;;;;;9.25;3.67;;;9.30;99.90;;;;;;5006698;28;20153;-76
2024/03/01 08:16:57;;;;;;;7.88;3.25;;;9.40;99.90;;;;;;5010331;28;22100;-76
2024/03/01 08:19:36;;;;;;;6.20;3.22;;;9.40;99.90;;;;;;5012511;28;20041;-76
2024/03/01 08:22:14;;;;;;;11.15;5.22;;;9.30;99.90;;;;;;5011931;28;20491;-76
2024/03/01 08:24:46;;;;;;;12.30;4.50;;;9.40;99.90;;;;;;5010768;28;20041;-75
2024/03/01 08:27:16;;;;;;;10.18;4.88;;;9.30;99.90;;;;;;5010416;28;20029;-75
2024/03/01 08:29:42;;;;;;;21.90;10.10;;;9.30;99.90;;;;;;5009947;28;20112;-76
2024/03/01 08:32:29;;;;;;;10.90;5.32;;;9.30;99.90;;;;;;5010771;28;20034;-76
2024/03/01 08:34:57;;;;;;;11.48;4.45;;;9.40;99.90;;;;;;5011021;28;20498;-76
2024/03/01 08:37:24;;;;;;;6.85;3.75;;;9.30;99.90;;;;;;5009688;28;20143;-76
2024/03/01 08:39:53;;;;;;;8.82;3.72;;;9.40;99.90;;;;;;5010587;28;20041;-76
2024/03/01 08:42:19;;;;;;;11.00;6.35;;;9.40;99.90;;;;;;5010956;28;20034;-77
2024/03/01 08:44:53;;;;;;;17.10;6.25;;;9.40;99.90;;;;;;5010453;28;20057;-77
2024/03/01 08:47:34;;;;;;;9.80;5.03;;;9.40;99.90;;;;;;5009207;28;20018;-77
2024/03/01 08:50:09;;;;;;;13.45;4.82;;;9.40;99.90;;;;;;5008123;28;20062;-77
2024/03/01 08:52:39;;;;;;;7.78;4.80;;;9.40;99.90;;;;;;5006958;28;20041;-77
2024/03/01 08:55:20;;;;;;;9.40;4.82;;;9.30;99.90;;;;;;5006889;28;20036;-77
2024/03/01 08:57:50;;;;;;;11.05;6.50;;;9.30;99.90;;;;;;5008597;28;20018;-77
2024/03/01 09:00:44;;;;;;;9.65;5.18;;;9.40;99.90;;;;;;5007224;28;20040;-77
2024/03/01 09:03:18;;;;;;;13.00;5.95;;;9.50;99.90;;;;;;5007670;28;20175;-77
2024/03/01 09:05:44;;;;;;;6.70;3.75;;;9.50;99.90;;;;;;5006208;28;21595;-77
2024/03/01 09:08:16;;;;;;;8.57;4.00;;;9.50;99.90;;;;;;5006508;28;20551;-77
2024/03/01 09:10:43;;;;;;;10.25;5.78;;;9.60;99.90;;;;;;5008475;28;20392;-77
2024/03/01 09:13:09;;;;;;;10.57;5.03;;;9.60;99.90;;;;;;5005510;28;20061;-77
2024/03/01 09:15:45;;;;;;;9.32;5.60;;;9.60;99.90;;;;;;5005537;28;20160;-77
2024/03/01 09:18:35;;;;;;;10.43;5.32;;;9.50;99.90;;;;;;5003120;28;20037;-76
2024/03/01 09:21:01;;;;;;;12.82;6.35;;;9.40;99.90;;;;;;5006201;28;20045;-77
2024/03/01 09:23:26;;;;;;;11.98;5.85;;;9.40;99.90;;;;;;5006589;28;20029;-77
2024/03/01 09:26:02;;;;;;;10.70;6.18;;;9.50;99.90;;;;;;5005825;28;20034;-75
2024/03/01 09:28:28;;;;;;;10.45;5.72;;;9.50;99.90;;;;;;5005879;28;20041;-75
2024/03/01 09:30:55;;;;;;;7.60;4.35;;;9.50;99.90;;;;;;5008292;28;20041;-77
2024/03/01 09:33:23;;;;;;;8.55;4.60;;;9.60;99.90;;;;;;5006115;28;20029;-78
2024/03/01 09:35:52;;;;;;;6.43;4.20;;;9.40;99.90;;;;;;5006143;28;20041;-78
2024/03/01 09:38:21;;;;;;;8.48;4.50;;;9.50;99.90;;;;;;5004302;28;20037;-78
2024/03/01 09:40:47;;;;;;;10.43;4.53;;;9.40;99.90;;;;;;5007123;28;20689;-78
2024/03/01 09:43:31;;;;;;;12.38;5.10;;;9.40;99.90;;;;;;5005309;28;20041;-77
2024/03/01 09:46:06;;;;;;;7.00;4.43;;;9.50;99.90;;;;;;5005814;28;20396;-78
2024/03/01 09:48:44;;;;;;;8.05;4.75;;;9.60;99.90;;;;;;5004545;28;20037;-76
2024/03/01 09:51:22;;;;;;;10.00;4.53;;;9.50;99.90;;;;;;5006194;28;20037;-77
2024/03/01 09:54:18;;;;;;;8.90;4.20;;;9.50;99.90;;;;;;5006131;28;20087;-77
2024/03/01 09:57:12;;;;;;;10.70;4.22;;;9.60;99.90;;;;;;5006296;28;20124;-77
2024/03/01 09:59:53;;;;;;;8.77;4.40;;;9.60;99.90;;;;;;5004282;28;20502;-75
2024/03/01 10:02:57;;;;;;;8.43;4.10;;;9.60;99.90;;;;;;5005289;28;20046;-76
2024/03/01 10:05:38;;;;;;;10.85;5.38;;;9.70;99.90;;;;;;5004456;28;20046;-77
2024/03/01 10:08:26;;;;;;;21.27;13.05;;;9.80;99.90;;;;;;5006647;28;21637;-76
2024/03/01 10:11:14;;;;;;;13.05;8.75;;;9.70;99.90;;;;;;4986494;28;20057;-76
2024/03/01 10:13:58;;;;;;;10.30;4.70;;;9.80;99.90;;;;;;5005305;28;20029;-76
2024/03/01 10:16:53;;;;;;;16.08;8.52;;;9.70;99.90;;;;;;5005994;28;20041;-76
2024/03/01 10:19:24;;;;;;;13.30;7.70;;;9.70;99.90;;;;;;5005628;28;20495;-76
2024/03/01 10:22:14;;;;;;;10.18;6.35;;;9.70;99.90;;;;;;5007705;28;20048;-76
2024/03/01 10:25:19;;;;;;;10.48;4.95;;;9.80;99.90;;;;;;5005876;28;20053;-76
2024/03/01 10:28:30;;;;;;;7.30;4.20;;;9.70;99.90;;;;;;5006016;28;20036;-76
2024/03/01 10:31:03;;;;;;;15.15;6.60;;;9.70;99.90;;;;;;4999893;28;20049;-76
2024/03/01 10:33:42;;;;;;;9.55;6.35;;;9.70;99.90;;;;;;5004187;28;20064;-76
2024/03/01 10:36:34;;;;;;;8.60;5.10;;;9.80;99.90;;;;;;5004235;28;20646;-76
2024/03/01 10:39:12;;;;;;;9.23;3.80;;;9.80;99.90;;;;;;5004079;28;20111;-76
2024/03/01 10:41:52;;;;;;;11.15;4.00;;;9.80;99.90;;;;;;5005650;28;20033;-76
2024/03/01 10:44:26;;;;;;;10.05;3.80;;;9.80;99.90;;;;;;5005148;28;20132;-76
2024/03/01 10:47:03;;;;;;;7.75;4.35;;;9.80;99.90;;;;;;5005502;28;20059;-76
2024/03/01 10:49:45;;;;;;;9.73;4.18;;;9.80;99.90;;;;;;5007625;28;20025;-76
2024/03/01 10:52:16;;;;;;;8.32;3.92;;;9.80;99.90;;;;;;5009553;28;21022;-76
2024/03/01 10:54:46;;;;;;;9.02;4.05;;;9.80;99.90;;;;;;5009445;28;20546;-76
2024/03/01 10:57:16;;;;;;;9.70;3.92;;;9.80;99.90;;;;;;5008595;28;20049;-76
2024/03/01 10:59:46;;;;;;;9.48;4.18;;;9.80;99.90;;;;;;5006105;28;20033;-76
2024/03/01 11:02:24;;;;;;;10.55;4.10;;;9.90;99.90;;;;;;5008391;28;20037;-76
2024/03/01 11:05:12;;;;;;;10.10;4.43;;;9.90;99.90;;;;;;5008836;28;20127;-76
2024/03/01 11:07:55;;;;;;;10.23;4.53;;;10.00;99.90;;;;;;5009534;28;20476;-78
2024/03/01 11:11:03;;;;;;;11.90;4.65;;;9.90;99.90;;;;;;5009254;28;20455;-75
2024/03/01 11:13:32;;;;;;;9.45;4.70;;;9.90;99.90;;;;;;5006315;28;20403;-76
2024/03/01 11:15:59;;;;;;;15.40;5.95;;;9.90;99.90;;;;;;5006750;28;20048;-76
2024/03/01 11:18:30;;;;;;;10.95;5.47;;;10.00;99.90;;;;;;5007193;28;20081;-79
2024/03/01 11:21:03;;;;;;;7.68;4.95;;;10.10;99.90;;;;;;5007171;28;20105;-76
2024/03/01 11:23:32;;;;;;;7.97;4.50;;;10.10;99.90;;;;;;5012525;28;20514;-76
2024/03/01 11:26:06;;;;;;;8.70;4.72;;;10.10;99.90;;;;;;5011046;28;20041;-76
2024/03/01 11:28:33;;;;;;;6.47;4.13;;;10.20;99.90;;;;;;5010940;28;20064;-76
2024/03/01 11:31:18;;;;;;;10.77;4.97;;;10.10;99.90;;;;;;5010001;28;20112;-75
2024/03/01 11:33:47;;;;;;;12.15;4.40;;;10.10;99.90;;;;;;5009124;28;20025;-75
2024/03/01 11:36:38;;;;;;;9.25;5.20;;;10.10;99.90;;;;;;5011154;28;20192;-75
2024/03/01 11:39:19;;;;;;;9.00;5.47;;;10.10;99.90;;;;;;5012768;28;20896;-75
2024/03/01 11:41:59;;;;;;;6.95;4.38;;;10.10;99.90;;;;;;5010942;28;20038;-75
2024/03/01 11:44:48;;;;;;;9.68;5.60;;;10.10;99.90;;;;;;5010346;28;20029;-76
2024/03/01 11:47:55;;;;;;;10.63;5.20;;;10.20;99.90;;;;;;5002078;28;20048;-75
2024/03/01 11:50:42;;;;;;;10.15;5.18;;;10.10;99.90;;;;;;4979743;28;20044;-76
2024/03/01 11:53:35;;;;;;;15.45;4.80;;;10.10;99.90;;;;;;5011172;28;20644;-75
2024/03/01 11:56:04;;;;;;;15.02;5.25;;;10.00;99.90;;;;;;5011407;28;20052;-77
2024/03/01 11:58:32;;;;;;;8.73;4.28;;;9.90;99.90;;;;;;5009639;28;20030;-75
2024/03/01 12:01:30;;;;;;;8.45;4.20;;;10.00;99.90;;;;;;4992202;28;20049;-76
2024/03/01 12:04:36;;;;;;;8.55;4.88;;;10.10;99.90;;;;;;5006990;28;20068;-75
2024/03/01 12:07:24;;;;;;;9.25;4.57;;;10.20;99.90;;;;;;5006136;28;20159;-75
2024/03/01 12:10:08;;;;;;;9.10;5.18;;;10.20;99.90;;;;;;5009161;28;20087;-75
2024/03/01 12:12:41;;;;;;;9.40;4.95;;;10.10;99.90;;;;;;5007399;28;20063;-76
2024/03/01 12:15:10;;;;;;;10.43;5.13;;;10.20;99.90;;;;;;5004959;28;20072;-75
2024/03/01 12:17:45;;;;;;;8.77;4.22;;;10.30;99.90;;;;;;5008510;28;20037;-76
2024/03/01 12:20:14;;;;;;;10.48;4.85;;;10.20;99.90;;;;;;5008419;28;20039;-76
2024/03/01 12:23:09;;;;;;;15.38;5.47;;;10.20;99.90;;;;;;5008116;28;20122;-76
2024/03/01 12:25:37;;;;;;;8.98;5.03;;;10.30;99.90;;;;;;5008395;28;20038;-76
2024/03/01 12:28:22;;;;;;;10.88;5.25;;;10.20;99.90;;;;;;5008477;28;20640;-76
2024/03/01 12:31:20;;;;;;;10.05;4.68;;;10.20;99.90;;;;;;5008440;28;20045;-76
2024/03/01 12:34:23;;;;;;;9.80;4.95;;;10.30;99.90;;;;;;4997283;28;20049;-75
2024/03/01 12:37:46;;;;;;;12.18;4.32;;;10.30;99.90;;;;;;5007162;28;20663;-75
2024/03/01 12:40:18;;;;;;;12.05;5.72;;;10.20;99.90;;;;;;4965230;28;20050;-76
2024/03/01 12:43:07;;;;;;;10.27;4.75;;;10.30;99.90;;;;;;4962762;28;20050;-76
2024/03/01 12:45:58;;;;;;;9.95;4.82;;;10.30;99.90;;;;;;4996811;28;20045;-76
2024/03/01 12:48:26;;;;;;;10.55;5.20;;;10.30;99.90;;;;;;5009084;28;20504;-76
2024/03/01 12:50:57;;;;;;;9.27;5.03;;;10.40;99.90;;;;;;5007558;28;20064;-75
2024/03/01 12:53:51;;;;;;;14.07;4.72;;;10.30;99.90;;;;;;5006654;28;20033;-76
2024/03/01 12:56:51;;;;;;;9.68;4.65;;;10.40;99.90;;;;;;5007384;28;20049;-76
2024/03/01 12:59:36;;;;;;;10.38;4.53;;;10.60;99.90;;;;;;5008398;28;20033;-76
2024/03/01 13:02:20;;;;;;;;;;;10.70;99.90;;;;;;5007333;28;20761;-76
2024/03/01 13:05:15;;;;;;;9.65;4.28;;;10.80;99.90;;;;;;5004049;28;21648;-76
2024/03/01 13:07:41;;;;;;;8.63;4.38;;;10.80;99.90;;;;;;5003158;28;20045;-76
2024/03/01 13:10:13;;;;;;;12.30;3.78;;;10.80;99.90;;;;;;5005087;28;20061;-76